createdAt,value
2019-06-01T00:01:55.533Z,99154.25
2019-06-01T00:04:22.080Z,99152.70
2019-06-01T00:06:49.047Z,99155.55
2019-06-01T00:09:15.640Z,99146.05
2019-06-01T00:11:45.649Z,99148.53
2019-06-01T00:14:12.350Z,99146.05
2019-06-01T00:16:39.919Z,99142.66
2019-06-01T00:19:06.772Z,99144.09
2019-06-01T00:21:34.341Z,99143.66
2019-06-01T00:24:01.479Z,99142.95
2019-06-01T00:26:27.974Z,99142.56
2019-06-01T00:28:54.512Z,99140.48
2019-06-01T00:31:21.016Z,99142.38
2019-06-01T00:33:47.665Z,99141.11
2019-06-01T00:36:14.159Z,99141.52
2019-06-01T00:38:41.611Z,99139.95
2019-06-01T00:41:08.323Z,99138.69
2019-06-01T00:43:34.929Z,99134.42
2019-06-01T00:46:01.422Z,99134.93
2019-06-01T00:48:27.944Z,99131.84
2019-06-01T00:50:54.792Z,99134.95
2019-06-01T00:53:21.335Z,99138.05
2019-06-01T00:55:47.968Z,99132.77
2019-06-01T00:58:15.638Z,99141.90
2019-06-01T01:00:45.201Z,99135.74
2019-06-01T01:03:10.549Z,99137.37
2019-06-01T01:05:37.102Z,99140.02
2019-06-01T01:08:03.739Z,99142.20
2019-06-01T01:10:30.315Z,99139.84
2019-06-01T01:13:05.257Z,99148.12
2019-06-01T01:15:31.935Z,99143.25
2019-06-01T01:17:58.504Z,99145.88
2019-06-01T01:20:25.132Z,99134.88
2019-06-01T01:22:52.266Z,99140.66
2019-06-01T01:25:19.021Z,99142.48
2019-06-01T01:27:46.564Z,99142.66
2019-06-01T01:30:13.324Z,99140.02
2019-06-01T01:32:40.054Z,99138.39
2019-06-01T01:35:07.087Z,99139.78
2019-06-01T01:37:33.542Z,99145.58
2019-06-01T01:40:00.385Z,99148.73
2019-06-01T01:42:26.873Z,99149.72
2019-06-01T01:44:54.639Z,99152.01
2019-06-01T01:47:22.497Z,99151.59
2019-06-01T01:49:50.025Z,99156.89
2019-06-01T01:52:16.586Z,99150.69
2019-06-01T01:54:43.341Z,99146.66
2019-06-01T01:57:10.915Z,99150.58
2019-06-01T01:59:37.423Z,99140.46
2019-06-01T02:02:04.115Z,99145.91
2019-06-01T02:04:30.849Z,99142.86
2019-06-01T02:06:58.481Z,99142.93
2019-06-01T02:09:25.035Z,99139.87
2019-06-01T02:11:51.537Z,99136.27
2019-06-01T02:14:19.445Z,99140.23
2019-06-01T02:16:45.933Z,99141.56
2019-06-01T02:19:13.002Z,99141.61
2019-06-01T02:21:39.553Z,99143.84
2019-06-01T02:24:07.095Z,99146.18
2019-06-01T02:26:33.597Z,99145.34
2019-06-01T02:29:01.483Z,99142.38
2019-06-01T02:31:41.090Z,99135.06
2019-06-01T02:33:58.524Z,99135.02
2019-06-01T02:36:25.320Z,99130.09
2019-06-01T02:38:51.841Z,99132.67
2019-06-01T02:41:18.322Z,99132.11
2019-06-01T02:43:44.841Z,99136.42
2019-06-01T02:46:11.350Z,99129.86
2019-06-01T02:48:37.920Z,99132.11
2019-06-01T02:51:05.514Z,99132.11
2019-06-01T02:53:32.153Z,99129.97
2019-06-01T02:55:59.882Z,99131.39
2019-06-01T02:58:26.712Z,99128.87
2019-06-01T03:01:34.380Z,99127.09
2019-06-01T03:04:03.366Z,99124.49
2019-06-01T03:06:31.043Z,99132.64
2019-06-01T03:08:59.909Z,99129.58
2019-06-01T03:11:36.843Z,99131.88
2019-06-01T03:14:06.630Z,99126.14
2019-06-01T03:16:39.954Z,99132.34
2019-06-01T03:19:05.987Z,99125.47
2019-06-01T03:21:35.994Z,99122.42
2019-06-01T03:24:08.151Z,99126.38
2019-06-01T03:26:40.788Z,99128.11
2019-06-01T03:29:09.505Z,99125.47
2019-06-01T03:31:36.195Z,99120.59
2019-06-01T03:34:15.192Z,99121.91
2019-06-01T03:36:42.268Z,99125.88
2019-06-01T03:39:09.060Z,99118.77
2019-06-01T03:41:35.600Z,99125.78
2019-06-01T03:44:02.598Z,99122.31
2019-06-01T03:46:31.326Z,99117.84
2019-06-01T03:49:01.381Z,99124.39
2019-06-01T03:51:28.110Z,99134.05
2019-06-01T03:53:54.918Z,99131.81
2019-06-01T03:56:21.632Z,99127.86
2019-06-01T03:58:48.146Z,99138.73
2019-06-01T04:01:15.231Z,99138.27
2019-06-01T04:03:42.229Z,99136.44
2019-06-01T04:06:09.423Z,99141.27
2019-06-01T04:08:36.658Z,99138.67
2019-06-01T04:11:03.631Z,99139.48
2019-06-01T04:13:33.165Z,99139.39
2019-06-01T04:16:01.888Z,99145.43
2019-06-01T04:18:32.827Z,99144.77
2019-06-01T04:20:59.705Z,99147.70
2019-06-01T04:23:26.269Z,99151.04
2019-06-01T04:25:52.977Z,99149.02
2019-06-01T04:28:19.719Z,99148.59
2019-06-01T04:30:46.523Z,99151.70
2019-06-01T04:33:13.362Z,99153.07
2019-06-01T04:35:41.939Z,99152.27
2019-06-01T04:38:09.304Z,99158.92
2019-06-01T04:40:36.933Z,99157.25
2019-06-01T04:43:11.981Z,99159.05
2019-06-01T04:45:39.358Z,99163.45
2019-06-01T04:48:06.400Z,99163.75
2019-06-01T04:50:32.952Z,99168.91
2019-06-01T04:52:59.723Z,99164.28
2019-06-01T04:55:26.387Z,99165.28
2019-06-01T04:57:52.956Z,99160.28
2019-06-01T05:00:27.558Z,99158.84
2019-06-01T05:02:49.833Z,99156.18
2019-06-01T05:05:17.198Z,99148.09
2019-06-01T05:07:43.801Z,99152.47
2019-06-01T05:10:11.629Z,99151.69
2019-06-01T05:12:41.498Z,99144.77
2019-06-01T05:15:15.961Z,99147.75
2019-06-01T05:17:43.069Z,99154.95
2019-06-01T05:20:14.712Z,99150.55
2019-06-01T05:22:42.009Z,99161.83
2019-06-01T05:25:09.115Z,99167.27
2019-06-01T05:27:35.985Z,99163.04
2019-06-01T05:30:03.665Z,99160.04
2019-06-01T05:32:30.580Z,99159.52
2019-06-01T05:34:57.435Z,99161.78
2019-06-01T05:37:24.513Z,99165.84
2019-06-01T05:39:51.736Z,99164.73
2019-06-01T05:42:20.866Z,99160.44
2019-06-01T05:44:47.417Z,99156.84
2019-06-01T05:47:16.233Z,99154.34
2019-06-01T05:49:43.049Z,99166.52
2019-06-01T05:52:10.404Z,99158.30
2019-06-01T05:54:37.316Z,99157.86
2019-06-01T05:57:04.473Z,99156.67
2019-06-01T05:59:31.767Z,99167.27
2019-06-01T06:01:58.651Z,99166.98
2019-06-01T06:04:25.449Z,99165.97
2019-06-01T06:06:52.124Z,99160.44
2019-06-01T06:09:19.098Z,99159.45
2019-06-01T06:11:45.684Z,99155.63
2019-06-01T06:14:13.354Z,99156.52
2019-06-01T06:16:40.232Z,99158.62
2019-06-01T06:19:07.384Z,99155.45
2019-06-01T06:21:34.102Z,99162.70
2019-06-01T06:24:00.856Z,99157.91
2019-06-01T06:26:27.938Z,99165.13
2019-06-01T06:28:54.474Z,99157.50
2019-06-01T06:31:21.245Z,99159.31
2019-06-01T06:33:56.575Z,99167.86
2019-06-01T06:36:19.846Z,99169.91
2019-06-01T06:38:48.714Z,99171.90
2019-06-01T06:41:16.045Z,99171.48
2019-06-01T06:43:43.568Z,99176.41
2019-06-01T06:46:10.151Z,99171.24
2019-06-01T06:48:36.644Z,99166.76
2019-06-01T06:51:03.643Z,99171.69
2019-06-01T06:53:35.113Z,99181.12
2019-06-01T06:55:58.895Z,99169.64
2019-06-01T06:58:26.491Z,99174.21
2019-06-01T07:00:54.366Z,99172.48
2019-06-01T07:03:25.282Z,99171.66
2019-06-01T07:05:52.391Z,99168.07
2019-06-01T07:08:21.737Z,99167.64
2019-06-01T07:10:48.457Z,99177.25
2019-06-01T07:13:15.022Z,99174.09
2019-06-01T07:15:42.041Z,99178.23
2019-06-01T07:18:09.117Z,99174.03
2019-06-01T07:20:36.215Z,99175.55
2019-06-01T07:23:11.351Z,99174.11
2019-06-01T07:25:39.123Z,99170.91
2019-06-01T07:28:05.800Z,99160.39
2019-06-01T07:30:41.342Z,99167.83
2019-06-01T07:33:06.738Z,99165.83
2019-06-01T07:35:34.507Z,99163.09
2019-06-01T07:38:01.099Z,99169.30
2019-06-01T07:40:28.929Z,99163.87
2019-06-01T07:42:55.414Z,99166.16
2019-06-01T07:45:22.903Z,99157.72
2019-06-01T07:47:50.336Z,99159.77
2019-06-01T07:50:17.162Z,99164.30
2019-06-01T07:52:43.995Z,99160.08
2019-06-01T07:55:11.064Z,99160.72
2019-06-01T07:57:37.648Z,99160.48
2019-06-01T08:00:04.572Z,99164.30
2019-06-01T08:02:38.266Z,99157.84
2019-06-01T08:05:04.976Z,99160.75
2019-06-01T08:07:32.052Z,99154.39
2019-06-01T08:10:02.053Z,99157.69
2019-06-01T08:12:29.682Z,99158.27
2019-06-01T08:14:56.519Z,99157.94
2019-06-01T08:17:24.087Z,99164.54
2019-06-01T08:19:52.075Z,99156.78
2019-06-01T08:22:18.850Z,99157.70
2019-06-01T08:24:45.326Z,99153.50
2019-06-01T08:27:13.003Z,99155.17
2019-06-01T08:29:40.012Z,99150.86
2019-06-01T08:32:11.313Z,99148.20
2019-06-01T08:34:40.860Z,99147.03
2019-06-01T08:37:07.639Z,99146.31
2019-06-01T08:39:34.645Z,99147.02
2019-06-01T08:42:01.219Z,99143.25
2019-06-01T08:44:27.816Z,99137.33
2019-06-01T08:46:54.286Z,99140.08
2019-06-01T08:49:20.971Z,99144.50
2019-06-01T08:51:47.478Z,99145.02
2019-06-01T08:54:14.362Z,99141.82
2019-06-01T08:56:41.471Z,99141.22
2019-06-01T08:59:08.251Z,99134.58
2019-06-01T09:01:35.101Z,99130.16
2019-06-01T09:04:02.530Z,99127.81
2019-06-01T09:06:35.426Z,99128.95
2019-06-01T09:09:05.726Z,99134.36
2019-06-01T09:11:35.322Z,99127.77
2019-06-01T09:14:08.567Z,99125.84
2019-06-01T09:16:38.919Z,99121.65
2019-06-01T09:19:05.727Z,99121.33
2019-06-01T09:21:33.548Z,99119.69
2019-06-01T09:24:00.262Z,99112.92
2019-06-01T09:26:27.748Z,99102.81
2019-06-01T09:28:58.862Z,99107.34
2019-06-01T09:31:28.241Z,99104.61
2019-06-01T09:33:55.253Z,99102.80
2019-06-01T09:36:22.347Z,99107.58
2019-06-01T09:38:50.090Z,99097.80
2019-06-01T09:41:17.897Z,99092.41
2019-06-01T09:43:45.822Z,99094.63
2019-06-01T09:46:12.886Z,99102.64
2019-06-01T09:48:39.435Z,99101.41
2019-06-01T09:51:10.992Z,99094.81
2019-06-01T09:53:38.146Z,99097.78
2019-06-01T09:56:05.240Z,99095.45
2019-06-01T09:58:32.324Z,99089.94
2019-06-01T10:00:59.273Z,99085.20
2019-06-01T10:03:25.867Z,99090.22
2019-06-01T10:06:02.169Z,99081.09
2019-06-01T10:08:27.506Z,99087.80
2019-06-01T10:13:25.279Z,99085.83
2019-06-01T10:15:51.870Z,99083.01
2019-06-01T10:18:18.441Z,99085.23
2019-06-01T10:20:44.989Z,99087.20
2019-06-01T10:23:11.824Z,99085.16
2019-06-01T10:25:38.900Z,99078.87
2019-06-01T10:28:05.749Z,99073.75
2019-06-01T10:30:33.888Z,99075.10
2019-06-01T10:33:00.581Z,99072.98
2019-06-01T10:35:27.176Z,99078.03
2019-06-01T10:37:55.832Z,99081.24
2019-06-01T10:40:22.439Z,99079.06
2019-06-01T10:42:50.379Z,99065.16
2019-06-01T10:45:17.298Z,99070.78
2019-06-01T10:47:46.031Z,99076.17
2019-06-01T10:50:17.185Z,99080.22
2019-06-01T10:52:44.449Z,99066.96
2019-06-01T10:55:11.719Z,99069.80
2019-06-01T10:57:40.658Z,99062.39
2019-06-01T11:00:08.050Z,99054.63
2019-06-01T11:02:34.842Z,99055.91
2019-06-01T11:05:01.716Z,99052.98
2019-06-01T11:07:28.347Z,99047.87
2019-06-01T11:09:54.861Z,99041.65
2019-06-01T11:12:21.642Z,99044.05
2019-06-01T11:14:48.234Z,99050.61
2019-06-01T11:17:14.770Z,99043.31
2019-06-01T11:19:42.033Z,99033.20
2019-06-01T11:22:08.770Z,99023.97
2019-06-01T11:24:35.614Z,99031.38
2019-06-01T11:27:04.511Z,99027.33
2019-06-01T11:29:31.428Z,99022.43
2019-06-01T11:31:58.358Z,99027.45
2019-06-01T11:34:26.010Z,99023.63
2019-06-01T11:37:04.493Z,99013.27
2019-06-01T11:39:22.139Z,99020.86
2019-06-01T11:41:50.659Z,99020.92
2019-06-01T11:44:18.408Z,99020.34
2019-06-01T11:46:45.255Z,99012.77
2019-06-01T11:49:14.247Z,99008.01
2019-06-01T11:51:45.308Z,99004.30
2019-06-01T11:54:41.643Z,99000.55
2019-06-01T11:57:12.668Z,98998.14
2019-06-01T11:59:39.940Z,98999.44
2019-06-01T12:02:07.127Z,98993.49
2019-06-01T12:04:36.071Z,98975.38
2019-06-01T12:07:16.837Z,98986.95
2019-06-01T12:09:31.118Z,98993.09
2019-06-01T12:11:58.187Z,98982.87
2019-06-01T12:14:25.090Z,98984.73
2019-06-01T12:16:51.727Z,98982.85
2019-06-01T12:19:18.249Z,98979.66
2019-06-01T12:21:45.387Z,98974.81
2019-06-01T12:24:13.235Z,98975.31
2019-06-01T12:26:43.409Z,98974.84
2019-06-01T12:29:10.080Z,98962.34
2019-06-01T12:31:37.665Z,98962.47
2019-06-01T12:34:04.805Z,98960.06
2019-06-01T12:36:34.716Z,98959.81
2019-06-01T12:39:01.342Z,98956.75
2019-06-01T12:41:27.874Z,98953.26
2019-06-01T12:44:19.949Z,98955.50
2019-06-01T12:46:56.047Z,98955.15
2019-06-01T12:49:22.541Z,98956.86
2019-06-01T12:51:49.274Z,98948.81
2019-06-01T12:54:15.909Z,98942.06
2019-06-01T12:56:43.027Z,98941.30
2019-06-01T12:59:12.811Z,98929.63
2019-06-01T13:01:43.211Z,98934.34
2019-06-01T13:04:10.123Z,98929.58
2019-06-01T13:06:37.127Z,98928.38
2019-06-01T13:09:06.229Z,98923.06
2019-06-01T13:11:32.910Z,98914.48
2019-06-01T13:14:04.366Z,98913.05
2019-06-01T13:16:30.741Z,98915.16
2019-06-01T13:18:57.408Z,98902.58
2019-06-01T13:21:45.417Z,98903.34
2019-06-01T13:24:12.855Z,98904.84
2019-06-01T13:26:39.472Z,98900.17
2019-06-01T13:29:06.897Z,98903.80
2019-06-01T13:31:33.484Z,98905.08
2019-06-01T13:34:00.890Z,98897.05
2019-06-01T13:36:27.968Z,98898.55
2019-06-01T13:38:55.715Z,98888.98
2019-06-01T13:41:23.902Z,98883.20
2019-06-01T13:43:51.933Z,98883.14
2019-06-01T13:46:19.570Z,98879.02
2019-06-01T13:48:55.242Z,98880.67
2019-06-01T13:51:24.665Z,98881.89
2019-06-01T13:53:52.948Z,98886.31
2019-06-01T13:56:19.596Z,98874.38
2019-06-01T13:58:46.415Z,98875.23
2019-06-01T14:01:13.442Z,98873.13
2019-06-01T14:03:40.020Z,98868.94
2019-06-01T14:06:06.748Z,98867.41
2019-06-01T14:08:36.255Z,98871.20
2019-06-01T14:11:02.882Z,98865.56
2019-06-01T14:13:29.912Z,98868.76
2019-06-01T14:15:56.771Z,98864.91
2019-06-01T14:18:29.125Z,98859.59
2019-06-01T14:20:56.912Z,98856.41
2019-06-01T14:23:25.431Z,98859.81
2019-06-01T14:25:52.274Z,98868.48
2019-06-01T14:28:18.867Z,98866.09
2019-06-01T14:30:46.473Z,98864.23
2019-06-01T14:33:13.048Z,98862.87
2019-06-01T14:35:40.160Z,98856.19
2019-06-01T14:38:08.707Z,98858.31
2019-06-01T14:40:35.955Z,98851.96
2019-06-01T14:43:02.705Z,98849.60
2019-06-01T14:45:29.560Z,98844.03
2019-06-01T14:48:01.287Z,98848.48
2019-06-01T14:50:29.945Z,98850.12
2019-06-01T14:52:57.845Z,98849.20
2019-06-01T14:55:24.850Z,98839.66
2019-06-01T14:57:52.446Z,98840.56
2019-06-01T15:00:19.566Z,98840.56
2019-06-01T15:02:46.083Z,98840.47
2019-06-01T15:05:13.231Z,98835.00
2019-06-01T15:07:39.821Z,98838.88
2019-06-01T15:10:06.865Z,98839.27
2019-06-01T15:12:33.452Z,98838.95
2019-06-01T15:15:01.887Z,98836.34
2019-06-01T15:17:29.217Z,98835.33
2019-06-01T15:19:56.351Z,98837.63
2019-06-01T15:22:23.877Z,98828.09
2019-06-01T15:24:59.451Z,98830.44
2019-06-01T15:27:26.014Z,98826.68
2019-06-01T15:29:52.792Z,98825.77
2019-06-01T15:32:19.697Z,98824.23
2019-06-01T15:34:46.195Z,98822.89
2019-06-01T15:37:12.729Z,98823.53
2019-06-01T15:39:39.237Z,98817.27
2019-06-01T15:42:07.871Z,98817.41
2019-06-01T15:44:37.417Z,98818.95
2019-06-01T15:47:06.416Z,98810.19
2019-06-01T15:49:33.296Z,98815.12
2019-06-01T15:51:59.977Z,98812.63
2019-06-01T15:54:26.609Z,98820.19
2019-06-01T15:56:54.344Z,98814.28
2019-06-01T15:59:21.217Z,98809.22
2019-06-01T16:01:49.139Z,98806.09
2019-06-01T16:04:22.936Z,98809.33
2019-06-01T16:06:52.992Z,98809.64
2019-06-01T16:09:19.653Z,98804.37
2019-06-01T16:11:49.048Z,98810.78
2019-06-01T16:14:15.590Z,98811.78
2019-06-01T16:16:42.123Z,98797.59
2019-06-01T16:19:11.317Z,98800.12
2019-06-01T16:21:38.028Z,98799.29
2019-06-01T16:24:04.707Z,98801.81
2019-06-01T16:26:31.241Z,98800.79
2019-06-01T16:29:00.491Z,98799.72
2019-06-01T16:31:27.322Z,98795.57
2019-06-01T16:33:54.513Z,98796.38
2019-06-01T16:36:26.707Z,98791.59
2019-06-01T16:38:59.529Z,98798.48
2019-06-01T16:41:24.080Z,98796.92
2019-06-01T16:43:50.793Z,98792.59
2019-06-01T16:46:17.350Z,98797.50
2019-06-01T16:48:44.043Z,98787.55
2019-06-01T16:51:10.861Z,98785.22
2019-06-01T16:53:37.566Z,98793.66
2019-06-01T16:56:06.363Z,98786.20
2019-06-01T16:58:33.076Z,98792.84
2019-06-01T17:01:00.452Z,98786.59
2019-06-01T17:03:28.264Z,98783.61
2019-06-01T17:05:54.972Z,98789.33
2019-06-01T17:08:21.695Z,98788.14
2019-06-01T17:10:48.520Z,98784.14
2019-06-01T17:13:15.670Z,98785.00
2019-06-01T17:15:56.892Z,98785.23
2019-06-01T17:18:24.640Z,98788.98
2019-06-01T17:21:21.138Z,98789.05
2019-06-01T17:23:59.462Z,98793.90
2019-06-01T17:26:26.208Z,98786.83
2019-06-01T17:29:06.838Z,98788.81
2019-06-01T17:31:53.377Z,98793.22
2019-06-01T17:34:06.549Z,98789.92
2019-06-01T17:36:37.637Z,98795.83
2019-06-01T17:39:09.069Z,98796.22
2019-06-01T17:41:36.028Z,98795.23
2019-06-01T17:44:02.723Z,98798.69
2019-06-01T17:46:30.575Z,98798.81
2019-06-01T17:48:57.307Z,98791.45
2019-06-01T17:51:24.050Z,98792.33
2019-06-01T17:53:53.230Z,98786.81
2019-06-01T17:56:19.567Z,98793.05
2019-06-01T17:58:46.178Z,98785.24
2019-06-01T18:01:13.143Z,98787.55
2019-06-01T18:03:39.823Z,98784.13
2019-06-01T18:06:07.853Z,98782.30
2019-06-01T18:08:34.579Z,98786.17
2019-06-01T18:11:03.889Z,98788.82
2019-06-01T18:13:33.563Z,98787.61
2019-06-01T18:16:26.152Z,98782.82
2019-06-01T18:18:53.139Z,98791.25
2019-06-01T18:21:20.124Z,98780.59
2019-06-01T18:23:49.298Z,98783.75
2019-06-01T18:26:20.953Z,98782.05
2019-06-01T18:28:47.690Z,98778.97
2019-06-01T18:31:17.443Z,98783.09
2019-06-01T18:33:45.013Z,98789.26
2019-06-01T18:36:15.494Z,98787.64
2019-06-01T18:38:51.268Z,98792.13
2019-06-01T18:41:20.167Z,98786.63
2019-06-01T18:43:53.082Z,98787.42
2019-06-01T18:46:19.967Z,98788.95
2019-06-01T18:48:47.736Z,98782.02
2019-06-01T18:51:14.620Z,98789.81
2019-06-01T18:53:41.400Z,98791.91
2019-06-01T18:56:08.225Z,98803.09
2019-06-01T18:58:35.216Z,98793.03
2019-06-01T19:01:04.297Z,98790.19
2019-06-01T19:03:30.946Z,98793.84
2019-06-01T19:05:58.987Z,98792.34
2019-06-01T19:08:25.616Z,98793.11
2019-06-01T19:10:52.286Z,98795.23
2019-06-01T19:13:47.592Z,98801.95
2019-06-01T19:16:17.279Z,98799.12
2019-06-01T19:18:44.936Z,98795.33
2019-06-01T19:21:12.745Z,98798.17
2019-06-01T19:23:39.604Z,98798.34
2019-06-01T19:26:10.050Z,98799.13
2019-06-01T19:28:35.974Z,98807.23
2019-06-01T19:31:02.901Z,98800.80
2019-06-01T19:33:30.743Z,98801.53
2019-06-01T19:36:25.914Z,98801.51
2019-06-01T19:38:58.617Z,98808.80
2019-06-01T19:41:26.496Z,98810.52
2019-06-01T19:43:54.284Z,98810.55
2019-06-01T19:46:21.901Z,98817.47
2019-06-01T19:48:48.391Z,98817.45
2019-06-01T19:51:16.749Z,98821.80
2019-06-01T19:53:43.329Z,98820.80
2019-06-01T19:56:10.959Z,98821.41
2019-06-01T19:58:38.498Z,98818.70
2019-06-01T20:01:08.097Z,98818.30
2019-06-01T20:03:35.613Z,98820.58
2019-06-01T20:06:02.180Z,98825.38
2019-06-01T20:08:28.805Z,98823.72
2019-06-01T20:10:55.360Z,98830.70
2019-06-01T20:13:23.141Z,98829.52
2019-06-01T20:15:49.905Z,98824.77
2019-06-01T20:18:17.276Z,98827.77
2019-06-01T20:20:52.544Z,98828.02
2019-06-01T20:23:19.508Z,98835.24
2019-06-01T20:25:46.360Z,98835.31
2019-06-01T20:28:13.629Z,98830.08
2019-06-01T20:30:47.656Z,98835.97
2019-06-01T20:33:20.474Z,98835.03
2019-06-01T20:35:47.417Z,98838.38
2019-06-01T20:38:14.430Z,98841.52
2019-06-01T20:40:40.983Z,98838.95
2019-06-01T20:43:07.555Z,98846.16
2019-06-01T20:45:34.141Z,98841.05
2019-06-01T20:48:02.909Z,98839.88
2019-06-01T20:50:29.459Z,98841.61
2019-06-01T20:52:56.944Z,98840.36
2019-06-01T20:55:24.249Z,98848.79
2019-06-01T20:57:50.726Z,98855.09
2019-06-01T21:00:18.106Z,98857.04
2019-06-01T21:02:44.719Z,98849.19
2019-06-01T21:05:11.581Z,98852.95
2019-06-01T21:07:38.194Z,98847.14
2019-06-01T21:10:04.860Z,98844.16
2019-06-01T21:12:44.679Z,98844.16
2019-06-01T21:15:01.470Z,98842.89
2019-06-01T21:17:28.157Z,98842.89
2019-06-01T21:19:57.392Z,98846.38
2019-06-01T21:22:24.905Z,98846.19
2019-06-01T21:24:55.827Z,98842.94
2019-06-01T21:27:22.733Z,98847.20
2019-06-01T21:29:49.435Z,98849.22
2019-06-01T21:32:17.304Z,98841.13
2019-06-01T21:34:44.005Z,98839.28
2019-06-01T21:37:10.622Z,98847.52
2019-06-01T21:39:37.120Z,98844.55
2019-06-01T21:42:03.805Z,98844.73
2019-06-01T21:44:30.462Z,98849.19
2019-06-01T21:46:57.043Z,98853.64
2019-06-01T21:49:24.151Z,98854.17
2019-06-01T21:51:53.126Z,98852.70
2019-06-01T21:54:20.574Z,98847.12
2019-06-01T21:56:48.221Z,98850.37
2019-06-01T21:59:16.469Z,98844.72
2019-06-01T22:01:44.078Z,98843.13
2019-06-01T22:04:11.634Z,98844.70
2019-06-01T22:06:38.442Z,98846.02
2019-06-01T22:09:05.710Z,98834.73
2019-06-01T22:11:35.177Z,98844.45
2019-06-01T22:14:03.999Z,98840.09
2019-06-01T22:16:31.712Z,98846.19
2019-06-01T22:18:58.645Z,98841.55
2019-06-01T22:21:25.887Z,98851.23
2019-06-01T22:23:53.516Z,98840.34
2019-06-01T22:26:20.128Z,98846.51
2019-06-01T22:28:47.916Z,98844.47
2019-06-01T22:31:14.385Z,98842.59
2019-06-01T22:33:41.974Z,98839.94
2019-06-01T22:36:08.517Z,98843.14
2019-06-01T22:38:35.040Z,98836.23
2019-06-01T22:41:02.735Z,98834.53
2019-06-01T22:43:43.487Z,98833.80
2019-06-01T22:45:57.629Z,98838.07
2019-06-01T22:48:35.826Z,98836.84
2019-06-01T22:51:02.579Z,98840.71
2019-06-01T22:53:29.109Z,98836.84
2019-06-01T22:55:55.835Z,98835.52
2019-06-01T22:58:23.245Z,98831.38
2019-06-01T23:00:49.903Z,98839.34
2019-06-01T23:03:16.667Z,98843.44
2019-06-01T23:05:43.878Z,98841.96
2019-06-01T23:08:10.419Z,98836.70
2019-06-01T23:10:37.189Z,98843.55
2019-06-01T23:13:04.325Z,98840.34
2019-06-01T23:15:31.971Z,98835.70
2019-06-01T23:17:58.481Z,98837.42
2019-06-01T23:20:25.884Z,98829.67
2019-06-01T23:22:52.670Z,98829.67
2019-06-01T23:25:19.361Z,98830.33
2019-06-01T23:27:45.971Z,98826.25
2019-06-01T23:30:12.797Z,98821.65
2019-06-01T23:32:39.302Z,98825.13
2019-06-01T23:35:06.008Z,98817.17
2019-06-01T23:37:32.913Z,98818.06
2019-06-01T23:39:59.453Z,98817.63
2019-06-01T23:42:26.769Z,98817.08
2019-06-01T23:44:53.418Z,98819.47
2019-06-01T23:47:20.111Z,98812.14
2019-06-01T23:49:46.628Z,98814.30
2019-06-01T23:52:13.377Z,98812.05
2019-06-01T23:54:39.912Z,98804.03
2019-06-01T23:57:06.493Z,98803.56
2019-06-01T23:59:35.392Z,98801.91
